Time;durP1;ratioP1;P1;durP2;ratioP2;P2;SDS_P1;SDS_P2;PMS_P1;PMS_P2;Temp;Humidity;BMP_temperature;BMP_pressure;BME280_temperature;BME280_humidity;BME280_pressure;Samples;Min_cycle;Max_cycle;Signal;HPM_P1;HPM_P2
2023/11/01 00:02:29;;;;;;;2.33;0.90;;;12.20;99.90;;;;;;2603093;54;20029;31
2023/11/01 00:05:03;;;;;;;2.40;1.00;;;12.10;99.90;;;;;;2620651;46;20031;31
2023/11/01 00:07:37;;;;;;;3.78;0.85;;;12.20;99.90;;;;;;2603080;54;20098;31
2023/11/01 00:10:18;;;;;;;3.95;0.75;;;12.20;99.90;;;;;;2620913;46;20023;31
2023/11/01 00:12:54;;;;;;;2.33;0.80;;;12.20;99.90;;;;;;2773226;31;20587;31
2023/11/01 00:15:29;;;;;;;;;;;12.20;99.90;;;;;;2603599;54;20061;31
2023/11/01 00:18:03;;;;;;;2.50;0.73;;;12.10;99.90;;;;;;2603087;54;20734;31
2023/11/01 00:20:44;;;;;;;4.45;0.88;;;12.10;99.90;;;;;;2602980;54;20589;31
2023/11/01 00:23:16;;;;;;;1.25;0.70;;;12.10;99.90;;;;;;2717319;39;20490;31
2023/11/01 00:25:54;;;;;;;2.30;1.00;;;12.10;99.90;;;;;;2621425;46;20538;31
2023/11/01 00:28:28;;;;;;;2.30;1.13;;;12.10;99.90;;;;;;2602851;54;20022;31
2023/11/01 00:31:03;;;;;;;1.38;0.60;;;12.10;99.90;;;;;;2620768;47;20089;31
2023/11/01 00:33:40;;;;;;;2.65;0.75;;;12.10;99.90;;;;;;2619963;47;20042;31
2023/11/01 00:36:14;;;;;;;2.28;0.50;;;12.10;99.90;;;;;;2621112;47;20031;31
2023/11/01 00:38:47;;;;;;;2.97;0.75;;;12.10;99.90;;;;;;2603005;54;20027;31
2023/11/01 00:41:25;;;;;;;4.50;1.02;;;12.10;99.90;;;;;;2701131;39;21561;31
2023/11/01 00:44:03;;;;;;;1.43;0.73;;;12.10;99.90;;;;;;2621082;47;20023;31
2023/11/01 00:46:39;;;;;;;5.60;0.70;;;12.10;99.90;;;;;;2602813;54;20026;31
2023/11/01 00:49:13;;;;;;;2.85;0.85;;;12.10;99.90;;;;;;2603045;54;20865;31
2023/11/01 00:51:48;;;;;;;2.42;0.63;;;12.10;99.90;;;;;;2621592;47;20172;31
2023/11/01 00:54:23;;;;;;;1.70;0.85;;;12.10;99.90;;;;;;2602821;54;20585;31
2023/11/01 00:57:01;;;;;;;1.70;0.63;;;12.10;99.90;;;;;;2719802;39;20681;31
2023/11/01 00:59:36;;;;;;;1.40;0.73;;;12.10;99.90;;;;;;2603099;54;20018;31
2023/11/01 01:02:12;;;;;;;2.30;0.90;;;12.10;99.90;;;;;;2621635;47;20030;31
2023/11/01 01:04:47;;;;;;;2.15;0.40;;;12.10;99.90;;;;;;2701441;39;21382;31
2023/11/01 01:07:24;;;;;;;3.35;1.17;;;12.10;99.90;;;;;;2602938;54;20267;31
2023/11/01 01:10:02;;;;;;;2.28;0.88;;;12.00;99.90;;;;;;2621581;47;20029;31
2023/11/01 01:12:34;;;;;;;2.50;0.85;;;12.00;99.90;;;;;;2602777;54;20041;31
2023/11/01 01:15:13;;;;;;;2.63;0.60;;;12.00;99.90;;;;;;2603002;54;20065;31
2023/11/01 01:17:47;;;;;;;5.70;0.75;;;12.00;99.90;;;;;;2603515;54;20029;31
2023/11/01 01:20:22;;;;;;;2.55;0.70;;;12.00;99.90;;;;;;2603658;54;20026;31
2023/11/01 01:22:57;;;;;;;2.75;0.60;;;12.00;99.90;;;;;;2622300;46;20928;31
2023/11/01 01:25:32;;;;;;;2.40;0.70;;;12.00;99.90;;;;;;2603757;54;20051;31
2023/11/01 01:28:08;;;;;;;1.63;0.80;;;12.00;99.90;;;;;;2603913;54;20885;31
2023/11/01 01:30:46;;;;;;;1.10;0.75;;;12.00;99.90;;;;;;2603626;54;20030;31
2023/11/01 01:33:20;;;;;;;1.80;0.70;;;12.00;99.90;;;;;;2603766;54;20581;31
2023/11/01 01:35:55;;;;;;;2.17;0.70;;;12.00;99.90;;;;;;2621430;46;20057;31
2023/11/01 01:38:30;;;;;;;3.50;0.93;;;12.00;99.90;;;;;;2603640;54;20034;31
2023/11/01 01:41:06;;;;;;;2.33;0.83;;;12.00;99.90;;;;;;2603793;54;20034;31
2023/11/01 01:43:40;;;;;;;1.20;0.70;;;11.90;99.90;;;;;;2603647;54;20924;31
2023/11/01 01:46:18;;;;;;;1.58;0.63;;;12.00;99.90;;;;;;2603746;54;20147;31
2023/11/01 01:48:54;;;;;;;1.98;0.80;;;12.00;99.90;;;;;;2603567;54;20034;31
2023/11/01 01:51:29;;;;;;;1.05;0.50;;;12.00;99.90;;;;;;2603692;54;20045;31
2023/11/01 01:54:06;;;;;;;1.50;0.60;;;11.90;99.90;;;;;;2603668;54;20822;31
2023/11/01 01:56:42;;;;;;;2.95;0.63;;;11.90;99.90;;;;;;2603220;54;20284;31
2023/11/01 01:59:17;;;;;;;1.42;0.50;;;12.00;99.90;;;;;;2603509;54;20877;31
2023/11/01 02:01:55;;;;;;;2.75;0.50;;;12.00;99.90;;;;;;2603407;54;20048;31
2023/11/01 02:04:29;;;;;;;2.25;0.60;;;12.00;99.90;;;;;;2603662;54;20565;31
2023/11/01 02:07:04;;;;;;;2.50;0.82;;;12.00;99.90;;;;;;2603443;54;20085;31
2023/11/01 02:09:39;;;;;;;2.30;0.60;;;12.00;99.90;;;;;;2603713;54;20900;31
2023/11/01 02:12:14;;;;;;;3.03;0.73;;;11.80;99.90;;;;;;2603667;54;20921;31
2023/11/01 02:14:49;;;;;;;1.20;0.45;;;12.00;99.90;;;;;;2603452;54;20889;31
2023/11/01 02:17:27;;;;;;;2.90;0.60;;;12.00;99.90;;;;;;2608900;46;20026;31
2023/11/01 02:20:02;;;;;;;2.53;0.73;;;;;;;;;;2603592;54;20036;31
2023/11/01 02:22:36;;;;;;;1.92;0.65;;;12.10;99.90;;;;;;2603588;54;20026;31
2023/11/01 02:25:14;;;;;;;3.05;0.60;;;12.10;99.90;;;;;;2603398;54;20906;31
2023/11/01 02:27:50;;;;;;;2.67;0.60;;;12.00;99.90;;;;;;2621787;46;20030;31
2023/11/01 02:30:24;;;;;;;1.35;0.50;;;12.00;99.90;;;;;;2622030;46;20892;31
2023/11/01 02:33:00;;;;;;;2.05;0.63;;;;;;;;;;2603415;54;20910;31
2023/11/01 02:35:37;;;;;;;1.33;0.60;;;;;;;;;;2603377;54;21044;31
2023/11/01 02:38:14;;;;;;;1.13;0.47;;;;;;;;;;2603505;54;21187;31
2023/11/01 02:40:51;;;;;;;3.03;0.70;;;;;;;;;;2621523;46;20029;31
2023/11/01 02:43:26;;;;;;;4.55;0.70;;;;;;;;;;2603671;54;20030;31
2023/11/01 02:46:00;;;;;;;1.98;0.40;;;;;;;;;;2621328;46;20023;31
2023/11/01 02:48:35;;;;;;;0.90;0.60;;;;;;;;;;2690586;39;21549;31
2023/11/01 02:51:10;;;;;;;3.70;1.05;;;;;;;;;;2603298;54;19938;31
2023/11/01 02:53:45;;;;;;;2.72;0.55;;;;;;;;;;2603305;54;20034;31
2023/11/01 02:56:26;;;;;;;0.80;0.50;;;;;;;;;;2701817;39;21608;31
2023/11/01 03:01:31;;;;;;;3.05;0.80;;;;;;;;;;2628949;39;21455;31
2023/11/01 03:04:07;;;;;;;1.58;0.60;;;;;;;;;;2603211;54;20027;31
2023/11/01 03:06:41;;;;;;;2.45;0.60;;;11.90;99.90;;;;;;2603186;54;20086;31
2023/11/01 03:09:16;;;;;;;2.55;0.80;;;11.90;99.90;;;;;;2603509;54;20030;31
2023/11/01 03:11:54;;;;;;;1.45;0.70;;;11.80;99.90;;;;;;2603397;54;20026;31
2023/11/01 03:14:32;;;;;;;6.00;0.90;;;11.80;99.90;;;;;;2603441;54;20018;31
2023/11/01 03:17:10;;;;;;;6.35;1.52;;;11.70;99.90;;;;;;2603280;54;20850;31
2023/11/01 03:19:45;;;;;;;3.13;0.80;;;11.80;99.90;;;;;;2603180;54;20057;31
2023/11/01 03:22:19;;;;;;;1.40;0.70;;;11.70;99.90;;;;;;2621449;46;20868;31
2023/11/01 03:24:54;;;;;;;0.95;0.70;;;11.70;99.90;;;;;;2603215;54;20042;31
2023/11/01 03:27:32;;;;;;;4.60;0.65;;;11.60;99.90;;;;;;2621800;46;20869;31
2023/11/01 03:30:07;;;;;;;1.88;0.60;;;11.60;99.90;;;;;;2603400;54;20069;31
2023/11/01 03:32:42;;;;;;;2.30;0.60;;;11.60;99.90;;;;;;2603347;54;20022;31
2023/11/01 03:35:17;;;;;;;3.30;0.40;;;11.60;99.90;;;;;;2621820;46;21037;31
2023/11/01 03:37:52;;;;;;;4.70;0.90;;;11.50;99.90;;;;;;2603471;54;20245;31
2023/11/01 03:40:27;;;;;;;1.13;0.52;;;11.50;99.90;;;;;;2621582;46;20042;31
2023/11/01 03:43:05;;;;;;;1.00;0.57;;;11.50;99.90;;;;;;2603425;54;20027;31
2023/11/01 03:45:40;;;;;;;1.75;0.70;;;11.40;99.90;;;;;;2602969;54;21242;31
2023/11/01 03:48:14;;;;;;;3.65;0.80;;;11.40;99.90;;;;;;2603168;54;20766;31
2023/11/01 03:50:49;;;;;;;3.70;0.60;;;11.30;99.90;;;;;;2603498;54;20042;31
2023/11/01 03:53:24;;;;;;;3.70;0.60;;;11.30;99.90;;;;;;2603358;54;20030;31
2023/11/01 03:56:01;;;;;;;4.18;0.80;;;11.30;99.90;;;;;;2621623;46;20037;31
2023/11/01 03:58:39;;;;;;;4.97;0.60;;;;;;;;;;2701641;39;20485;31
2023/11/01 04:01:14;;;;;;;1.40;0.60;;;11.30;99.90;;;;;;2603131;54;20806;31
2023/11/01 04:03:49;;;;;;;1.23;0.57;;;;;;;;;;2603110;54;20862;31
2023/11/01 04:06:22;;;;;;;2.30;0.60;;;;;;;;;;2621132;46;20018;31
2023/11/01 04:08:57;;;;;;;1.15;0.40;;;11.20;99.90;;;;;;2621894;46;20030;31
2023/11/01 04:11:31;;;;;;;1.23;0.40;;;11.10;99.90;;;;;;2602986;54;20055;31
2023/11/01 04:14:09;;;;;;;1.23;0.63;;;11.10;99.90;;;;;;2621239;46;20027;31
2023/11/01 04:16:43;;;;;;;1.50;0.60;;;11.00;99.90;;;;;;2621461;46;20028;31
2023/11/01 04:19:18;;;;;;;4.85;0.95;;;11.00;99.90;;;;;;2603123;54;20068;31
2023/11/01 04:21:53;;;;;;;5.70;0.90;;;10.90;99.90;;;;;;2621009;46;20022;31
2023/11/01 04:24:28;;;;;;;1.35;0.60;;;10.90;99.90;;;;;;2603226;54;21104;31
2023/11/01 04:27:03;;;;;;;2.95;0.80;;;10.90;99.90;;;;;;2621425;46;20105;31
2023/11/01 04:29:41;;;;;;;5.05;0.80;;;10.90;99.90;;;;;;2603138;54;20874;31
2023/11/01 04:32:16;;;;;;;2.25;1.02;;;10.80;99.90;;;;;;2603018;54;20117;31
2023/11/01 04:34:51;;;;;;;2.85;0.80;;;10.80;99.90;;;;;;2603315;54;20026;31
2023/11/01 04:37:25;;;;;;;2.47;1.38;;;10.80;99.90;;;;;;2701465;39;21405;31
2023/11/01 04:40:01;;;;;;;2.75;1.05;;;10.80;99.90;;;;;;2603376;54;20850;31
2023/11/01 04:42:35;;;;;;;4.18;1.20;;;10.80;99.90;;;;;;2603042;54;20057;31
2023/11/01 04:45:14;;;;;;;4.07;1.30;;;10.70;99.90;;;;;;2602986;54;20781;31
2023/11/01 04:47:49;;;;;;;2.97;1.63;;;10.70;99.90;;;;;;2603000;54;20242;31
2023/11/01 04:50:23;;;;;;;5.28;1.63;;;10.70;99.90;;;;;;2603018;54;20866;31
2023/11/01 04:52:58;;;;;;;2.33;1.65;;;10.70;99.90;;;;;;2603781;54;20121;31
2023/11/01 04:55:32;;;;;;;4.15;1.52;;;10.70;99.90;;;;;;2603687;54;20026;31
2023/11/01 04:58:06;;;;;;;6.13;1.60;;;10.70;99.90;;;;;;2622244;46;20081;31
2023/11/01 05:00:47;;;;;;;2.65;1.55;;;10.70;99.90;;;;;;2603965;54;20841;31
2023/11/01 05:03:18;;;;;;;3.30;1.40;;;10.70;99.90;;;;;;2621988;46;20027;31
2023/11/01 05:05:55;;;;;;;1.90;1.58;;;10.70;99.90;;;;;;2622132;46;20085;31
2023/11/01 05:08:31;;;;;;;2.65;1.50;;;10.80;99.90;;;;;;2603905;54;20568;31
2023/11/01 05:11:06;;;;;;;;;;;10.80;99.90;;;;;;2603862;54;20786;31
2023/11/01 05:13:44;;;;;;;2.33;1.30;;;10.80;99.90;;;;;;2603796;54;19956;31
2023/11/01 05:16:22;;;;;;;3.63;1.67;;;10.80;99.90;;;;;;2603507;54;20034;31
2023/11/01 05:18:57;;;;;;;6.95;1.90;;;10.80;99.90;;;;;;2603691;54;20100;31
2023/11/01 05:21:33;;;;;;;3.33;1.60;;;10.80;99.90;;;;;;2603863;54;20030;31
2023/11/01 05:24:08;;;;;;;2.85;1.42;;;10.80;99.90;;;;;;2603752;54;20026;31
2023/11/01 05:26:42;;;;;;;2.90;1.50;;;10.80;99.90;;;;;;2603673;54;20078;31
2023/11/01 05:29:20;;;;;;;3.95;1.90;;;10.80;99.90;;;;;;2603701;54;20883;31
2023/11/01 05:31:55;;;;;;;3.55;2.00;;;10.80;99.90;;;;;;2603841;54;20085;31
2023/11/01 05:34:33;;;;;;;5.37;2.00;;;10.80;99.90;;;;;;2603654;54;20561;31
2023/11/01 05:37:09;;;;;;;3.92;1.63;;;10.80;99.90;;;;;;2603446;54;20022;31
2023/11/01 05:39:44;;;;;;;;;;;10.80;99.90;;;;;;2604093;54;20884;31
2023/11/01 05:42:19;;;;;;;3.33;1.85;;;10.80;99.90;;;;;;2603669;54;19954;31
2023/11/01 05:44:55;;;;;;;3.85;1.80;;;10.80;99.90;;;;;;2603859;54;20042;31
2023/11/01 05:47:29;;;;;;;1.98;1.25;;;10.90;99.90;;;;;;2603567;54;20029;31
2023/11/01 05:50:06;;;;;;;3.50;1.33;;;10.90;99.90;;;;;;2621871;46;20927;31
2023/11/01 05:52:45;;;;;;;2.08;1.35;;;10.80;99.90;;;;;;2603883;54;20026;31
2023/11/01 05:55:19;;;;;;;2.53;1.60;;;10.90;99.90;;;;;;2603672;54;21671;31
2023/11/01 05:58:08;;;;;;;2.10;1.30;;;10.90;99.90;;;;;;2603580;54;20863;31
2023/11/01 06:00:42;;;;;;;1.73;1.10;;;10.90;99.90;;;;;;2720378;39;20532;31
2023/11/01 06:03:17;;;;;;;4.35;1.55;;;10.90;99.90;;;;;;2603465;54;20030;31
2023/11/01 06:05:53;;;;;;;2.92;1.60;;;10.90;99.90;;;;;;2622022;46;20652;31
2023/11/01 06:08:34;;;;;;;4.60;1.75;;;10.90;99.90;;;;;;2603779;54;20022;31
2023/11/01 06:11:08;;;;;;;3.53;1.63;;;10.90;99.90;;;;;;2619452;46;20085;31
2023/11/01 06:13:42;;;;;;;6.50;1.70;;;10.90;99.90;;;;;;2621388;46;20242;31
2023/11/01 06:16:15;;;;;;;3.60;1.50;;;10.90;99.90;;;;;;2603195;54;20886;31
2023/11/01 06:18:51;;;;;;;1.85;1.30;;;10.90;99.90;;;;;;2603468;54;20950;31
2023/11/01 06:21:27;;;;;;;3.30;1.60;;;11.00;99.90;;;;;;2603508;54;20056;31
2023/11/01 06:24:07;;;;;;;3.47;1.80;;;10.90;99.90;;;;;;2603317;54;20246;31
2023/11/01 06:26:41;;;;;;;2.77;1.40;;;11.00;99.90;;;;;;2603724;54;20042;31
2023/11/01 06:29:17;;;;;;;4.35;1.50;;;11.00;99.90;;;;;;2603551;54;20853;31
2023/11/01 06:31:55;;;;;;;2.90;1.52;;;11.00;99.90;;;;;;2603293;54;20054;31
2023/11/01 06:34:29;;;;;;;2.33;1.27;;;11.00;99.90;;;;;;2619975;46;19931;31
2023/11/01 06:37:05;;;;;;;3.33;1.52;;;11.00;99.90;;;;;;2621488;46;21115;31
2023/11/01 06:39:43;;;;;;;5.60;1.45;;;11.00;99.90;;;;;;2603381;54;20671;31
2023/11/01 06:42:20;;;;;;;2.35;1.48;;;11.10;99.90;;;;;;2603350;54;20073;31
2023/11/01 06:44:56;;;;;;;2.10;1.70;;;11.10;99.90;;;;;;2603394;54;20029;31
2023/11/01 06:50:20;;;;;;;2.95;1.50;;;11.10;99.90;;;;;;2603243;54;20850;31
2023/11/01 06:52:56;;;;;;;6.32;1.92;;;11.20;99.90;;;;;;2603701;54;20045;31
2023/11/01 06:55:33;;;;;;;2.70;1.63;;;11.20;99.90;;;;;;2603444;54;20033;31
2023/11/01 06:58:10;;;;;;;4.30;1.80;;;11.20;99.90;;;;;;2603548;54;19934;31
2023/11/01 07:00:45;;;;;;;2.88;1.60;;;11.20;99.90;;;;;;2603186;54;20026;31
2023/11/01 07:03:21;;;;;;;3.03;1.57;;;11.30;99.90;;;;;;2603244;54;20817;31
2023/11/01 07:05:56;;;;;;;2.00;1.70;;;11.30;99.90;;;;;;2603341;54;20161;31
2023/11/01 07:08:33;;;;;;;2.72;1.85;;;11.20;99.90;;;;;;2619541;46;20023;31
2023/11/01 07:11:12;;;;;;;2.58;1.77;;;11.30;99.90;;;;;;2603253;54;20026;31
2023/11/01 07:13:48;;;;;;;2.50;1.80;;;11.30;99.90;;;;;;2621409;46;20160;31
2023/11/01 07:16:24;;;;;;;4.30;1.77;;;11.30;99.90;;;;;;2603017;54;20037;31
2023/11/01 07:19:02;;;;;;;6.43;1.88;;;11.30;99.90;;;;;;2603133;54;20054;31
2023/11/01 07:21:43;;;;;;;3.65;1.65;;;11.40;99.90;;;;;;2621150;46;20033;31
2023/11/01 07:24:19;;;;;;;3.10;1.50;;;11.40;99.90;;;;;;2618868;46;20025;31
2023/11/01 07:27:00;;;;;;;3.45;1.33;;;11.40;99.90;;;;;;2603099;54;20027;31
2023/11/01 07:29:35;;;;;;;1.80;1.45;;;11.40;99.90;;;;;;2621625;46;20939;31
2023/11/01 07:32:12;;;;;;;3.42;1.92;;;11.50;99.90;;;;;;2603360;54;20038;31
2023/11/01 07:34:49;;;;;;;5.20;1.60;;;11.50;99.90;;;;;;2603116;54;20096;31
2023/11/01 07:37:24;;;;;;;2.28;1.80;;;11.50;99.90;;;;;;2603195;54;20994;31
2023/11/01 07:39:59;;;;;;;6.85;2.30;;;11.50;99.90;;;;;;2603117;54;20153;31
2023/11/01 07:42:40;;;;;;;3.33;1.60;;;11.60;99.90;;;;;;2603411;54;20048;31
2023/11/01 07:47:50;;;;;;;8.40;1.70;;;11.60;99.90;;;;;;2603036;54;20796;31
2023/11/01 07:50:26;;;;;;;2.78;1.60;;;11.70;99.90;;;;;;2701522;39;21669;31
2023/11/01 07:53:02;;;;;;;2.90;1.70;;;11.70;99.90;;;;;;2603101;54;20137;31
2023/11/01 07:55:37;;;;;;;3.10;2.10;;;11.80;99.90;;;;;;2603264;54;20881;31
2023/11/01 07:58:14;;;;;;;6.18;2.03;;;11.80;99.90;;;;;;2701934;39;20488;31
2023/11/01 08:00:50;;;;;;;4.60;1.50;;;11.80;99.90;;;;;;2603027;54;20840;31
2023/11/01 08:03:25;;;;;;;5.43;1.67;;;11.90;99.90;;;;;;2603011;54;20845;31
2023/11/01 08:06:01;;;;;;;2.70;1.73;;;12.00;99.90;;;;;;2603230;54;20765;31
2023/11/01 08:08:36;;;;;;;8.25;2.17;;;12.00;99.90;;;;;;2602806;54;20042;31
2023/11/01 08:11:11;;;;;;;6.07;2.30;;;12.10;99.90;;;;;;2603092;54;21406;31
2023/11/01 08:13:49;;;;;;;3.40;1.40;;;12.20;99.90;;;;;;2602725;54;20275;31
2023/11/01 08:16:25;;;;;;;2.47;1.35;;;12.20;99.90;;;;;;2603186;54;20033;31
2023/11/01 08:19:02;;;;;;;2.63;1.48;;;12.30;99.90;;;;;;2603131;54;20097;31
2023/11/01 08:21:37;;;;;;;3.45;1.40;;;12.40;99.90;;;;;;2701539;39;21543;31
2023/11/01 08:24:14;;;;;;;3.13;1.17;;;12.40;99.90;;;;;;2603117;54;20057;31
2023/11/01 08:26:53;;;;;;;1.95;1.25;;;12.50;99.90;;;;;;2602820;54;20827;31
2023/11/01 08:29:35;;;;;;;2.17;1.15;;;12.50;99.90;;;;;;2621629;46;20034;31
2023/11/01 08:32:11;;;;;;;4.45;1.10;;;12.60;99.90;;;;;;2603102;54;20038;31
2023/11/01 08:34:45;;;;;;;3.33;1.40;;;12.70;99.90;;;;;;2621586;47;20026;31
2023/11/01 08:37:22;;;;;;;2.70;1.23;;;12.80;99.90;;;;;;2602935;54;20085;31
2023/11/01 08:39:56;;;;;;;9.25;3.15;;;12.80;99.90;;;;;;2602997;54;20053;31
2023/11/01 08:42:31;;;;;;;23.40;5.17;;;13.10;99.90;;;;;;2621174;47;20029;31
2023/11/01 08:45:10;;;;;;;28.27;6.57;;;13.30;99.90;;;;;;2602941;54;20053;31
2023/11/01 08:47:46;;;;;;;9.73;2.10;;;13.60;99.90;;;;;;2621869;47;20030;31
2023/11/01 08:50:21;;;;;;;2.17;0.90;;;13.90;99.90;;;;;;2621436;47;20926;31
2023/11/01 08:52:56;;;;;;;2.55;1.20;;;14.00;95.10;;;;;;2602882;54;20929;31
2023/11/01 08:55:32;;;;;;;2.50;0.95;;;14.00;93.00;;;;;;2603025;54;20026;31
2023/11/01 08:58:07;;;;;;;2.00;1.08;;;14.10;96.40;;;;;;2602893;54;20086;31
2023/11/01 09:00:45;;;;;;;2.85;1.00;;;14.50;97.80;;;;;;2602801;54;20026;31
2023/11/01 09:03:24;;;;;;;1.00;0.60;;;14.80;92.30;;;;;;2603113;54;21408;31
2023/11/01 09:05:59;;;;;;;3.58;1.63;;;15.30;91.50;;;;;;2602845;54;20636;31
2023/11/01 09:08:34;;;;;;;5.32;0.90;;;15.70;88.40;;;;;;2603177;54;20053;31
2023/11/01 09:11:10;;;;;;;3.50;1.15;;;16.10;74.60;;;;;;2603097;54;20026;31
2023/11/01 09:13:46;;;;;;;1.83;0.80;;;16.40;67.50;;;;;;2602856;54;20141;31
2023/11/01 09:16:23;;;;;;;1.88;0.77;;;16.60;64.10;;;;;;2615469;47;20037;31
2023/11/01 09:18:58;;;;;;;2.83;0.73;;;16.70;63.20;;;;;;2602718;54;20036;31
2023/11/01 09:21:35;;;;;;;4.22;0.88;;;17.00;60.30;;;;;;2602709;54;20847;31
2023/11/01 09:24:11;;;;;;;1.00;0.55;;;17.20;52.00;;;;;;2621195;47;19961;31
2023/11/01 09:26:46;;;;;;;;;;;17.50;52.80;;;;;;2603275;54;20077;31
2023/11/01 09:29:22;;;;;;;1.55;0.82;;;17.60;53.30;;;;;;2603031;54;20503;31
2023/11/01 09:32:00;;;;;;;4.70;1.10;;;17.70;49.20;;;;;;2602799;54;20070;31
2023/11/01 09:34:35;;;;;;;2.90;1.38;;;17.90;46.90;;;;;;2602805;54;20852;31
2023/11/01 09:37:10;;;;;;;2.40;1.00;;;18.10;46.30;;;;;;2602902;54;20832;31
2023/11/01 09:39:44;;;;;;;1.90;0.80;;;18.20;48.80;;;;;;2603547;54;20069;31
2023/11/01 09:42:23;;;;;;;1.55;0.70;;;18.30;39.10;;;;;;2603872;54;20030;31
2023/11/01 09:44:58;;;;;;;1.15;0.70;;;18.20;34.10;;;;;;2702129;39;20503;31
2023/11/01 09:47:35;;;;;;;1.30;0.85;;;18.30;44.30;;;;;;2603549;54;20061;31
2023/11/01 09:50:12;;;;;;;0.85;0.50;;;18.20;33.60;;;;;;2603511;54;20117;31
2023/11/01 09:52:47;;;;;;;4.10;0.80;;;18.10;31.30;;;;;;2603622;54;20030;31
2023/11/01 09:55:22;;;;;;;1.90;0.80;;;18.20;34.30;;;;;;2603747;54;20031;31
2023/11/01 09:57:57;;;;;;;1.55;0.63;;;18.30;33.30;;;;;;2603428;54;20354;31
2023/11/01 10:00:32;;;;;;;1.80;0.45;;;18.30;29.80;;;;;;2603690;54;20031;31
2023/11/01 10:03:09;;;;;;;1.43;0.70;;;18.20;34.00;;;;;;2603620;54;20926;31
2023/11/01 10:05:45;;;;;;;1.92;0.60;;;18.00;27.60;;;;;;2622103;46;20062;31
2023/11/01 10:08:19;;;;;;;;;;;17.80;29.00;;;;;;2702685;39;21094;31
2023/11/01 10:10:54;;;;;;;1.77;0.40;;;17.70;24.90;;;;;;2622005;46;19934;31
2023/11/01 10:13:31;;;;;;;1.10;0.30;;;17.50;28.50;;;;;;2603604;54;20772;31
2023/11/01 10:16:08;;;;;;;0.73;0.40;;;17.40;30.00;;;;;;2621932;46;20050;31
2023/11/01 10:18:45;;;;;;;1.08;0.47;;;17.20;31.80;;;;;;2603641;54;20031;31
2023/11/01 10:21:20;;;;;;;1.65;0.50;;;17.10;32.30;;;;;;2603840;54;20026;31
2023/11/01 10:23:55;;;;;;;1.70;0.50;;;17.00;36.30;;;;;;2603622;54;20828;31
2023/11/01 10:26:31;;;;;;;1.10;0.60;;;16.90;39.60;;;;;;2603723;54;20809;31
2023/11/01 10:29:06;;;;;;;2.28;0.50;;;16.80;35.70;;;;;;2603526;54;20069;31
2023/11/01 10:31:40;;;;;;;1.15;0.43;;;16.70;35.80;;;;;;2603334;54;20060;31
2023/11/01 10:34:18;;;;;;;2.80;0.63;;;16.60;42.00;;;;;;2603387;54;20110;31
2023/11/01 10:36:54;;;;;;;0.73;0.47;;;16.80;43.30;;;;;;2603306;54;20921;31
2023/11/01 10:39:31;;;;;;;1.58;0.60;;;16.60;42.80;;;;;;2622059;46;20080;31
2023/11/01 10:42:07;;;;;;;1.77;0.60;;;16.70;43.60;;;;;;2603584;54;20828;31
2023/11/01 10:44:44;;;;;;;1.60;0.60;;;16.70;45.90;;;;;;2603411;54;20022;31
2023/11/01 10:47:19;;;;;;;0.80;0.52;;;16.60;44.20;;;;;;2621759;46;20050;31
2023/11/01 10:49:58;;;;;;;1.63;0.95;;;16.70;46.10;;;;;;2602819;54;20053;31
2023/11/01 10:52:33;;;;;;;2.67;0.50;;;16.70;45.10;;;;;;2603456;54;20027;31
2023/11/01 10:55:11;;;;;;;2.63;1.02;;;16.70;44.60;;;;;;2603357;54;20030;31
2023/11/01 10:57:46;;;;;;;4.78;0.70;;;16.70;43.20;;;;;;2603429;54;20054;31
2023/11/01 11:00:24;;;;;;;2.00;0.60;;;16.80;39.20;;;;;;2603309;54;20883;31
2023/11/01 11:03:01;;;;;;;1.30;0.53;;;16.80;37.00;;;;;;2603052;54;20901;31
2023/11/01 11:05:40;;;;;;;2.25;0.52;;;16.80;36.60;;;;;;2621837;46;20246;31
2023/11/01 11:08:15;;;;;;;1.20;0.50;;;16.80;36.50;;;;;;2603329;54;20901;31
2023/11/01 11:10:50;;;;;;;1.45;0.50;;;16.80;34.60;;;;;;2603204;54;20030;31
2023/11/01 11:13:31;;;;;;;2.45;0.60;;;16.80;37.20;;;;;;2603511;54;20753;31
2023/11/01 11:16:08;;;;;;;2.33;0.60;;;16.90;40.30;;;;;;2603288;54;20037;31
2023/11/01 11:19:00;;;;;;;2.20;0.40;;;16.90;35.80;;;;;;2622123;46;20946;31
2023/11/01 11:22:02;;;;;;;1.92;0.63;;;16.90;32.10;;;;;;2603500;54;20037;31
2023/11/01 11:24:55;;;;;;;1.10;0.40;;;16.90;36.60;;;;;;2603407;54;20837;31
2023/11/01 11:27:51;;;;;;;1.58;0.50;;;16.90;35.90;;;;;;2603258;54;20101;31
2023/11/01 11:31:08;;;;;;;1.05;0.50;;;16.70;35.90;;;;;;2603489;54;20028;31
2023/11/01 11:34:14;;;;;;;1.50;0.50;;;16.60;34.90;;;;;;2603428;54;20028;31
2023/11/01 11:37:11;;;;;;;1.87;0.63;;;16.50;41.80;;;;;;2603367;54;20815;31
2023/11/01 11:39:56;;;;;;;2.85;0.43;;;16.40;40.50;;;;;;2603089;54;21131;31
2023/11/01 11:42:50;;;;;;;1.33;0.50;;;16.30;45.00;;;;;;2603363;54;19931;31
2023/11/01 11:45:29;;;;;;;1.10;0.40;;;16.40;43.20;;;;;;2603100;54;20029;31
2023/11/01 11:48:05;;;;;;;1.90;0.63;;;16.40;40.60;;;;;;2622068;46;20804;31
2023/11/01 11:50:39;;;;;;;1.45;0.50;;;16.40;43.20;;;;;;2602952;54;20276;31
2023/11/01 11:53:17;;;;;;;1.25;0.30;;;16.30;35.80;;;;;;2603349;54;20093;31
2023/11/01 11:55:55;;;;;;;2.45;0.40;;;16.40;42.00;;;;;;2603490;54;20864;31
2023/11/01 11:58:30;;;;;;;1.05;0.35;;;16.40;39.50;;;;;;2603521;54;20921;31
2023/11/01 12:01:08;;;;;;;0.55;0.20;;;16.40;37.10;;;;;;2603087;54;20554;31
2023/11/01 12:03:44;;;;;;;1.27;0.40;;;16.40;34.20;;;;;;2603367;54;20124;31
2023/11/01 12:06:19;;;;;;;;;;;16.40;35.70;;;;;;2603129;54;20027;31
2023/11/01 12:08:56;;;;;;;2.65;0.60;;;16.40;35.10;;;;;;2603336;54;20562;31
2023/11/01 12:11:32;;;;;;;2.10;0.50;;;16.40;33.70;;;;;;2602856;54;20112;31
2023/11/01 12:14:07;;;;;;;3.50;0.45;;;16.40;32.60;;;;;;2602936;54;20031;31
2023/11/01 12:16:43;;;;;;;7.15;0.45;;;16.30;30.80;;;;;;2603036;54;20124;31
2023/11/01 12:19:21;;;;;;;1.45;0.40;;;16.30;28.90;;;;;;2621705;46;20851;31
2023/11/01 12:21:57;;;;;;;1.15;0.25;;;16.30;25.30;;;;;;2603152;54;20077;31
2023/11/01 12:24:44;;;;;;;;;;;16.30;27.90;;;;;;2603385;54;20039;31
2023/11/01 12:27:21;;;;;;;1.95;0.32;;;16.30;28.30;;;;;;2603393;54;19935;31
2023/11/01 12:29:58;;;;;;;0.57;0.30;;;16.20;28.40;;;;;;2603066;54;20027;31
2023/11/01 12:32:34;;;;;;;0.93;0.60;;;16.10;29.20;;;;;;2602976;54;20048;31
2023/11/01 12:35:11;;;;;;;1.05;0.47;;;16.10;36.50;;;;;;2701448;39;21598;31
2023/11/01 12:37:46;;;;;;;1.33;0.50;;;16.10;38.50;;;;;;2621672;47;20693;31
2023/11/01 12:40:25;;;;;;;1.75;0.60;;;16.10;41.60;;;;;;2603167;54;20797;31
2023/11/01 12:43:11;;;;;;;0.70;0.40;;;16.10;42.70;;;;;;2603013;54;20608;31
2023/11/01 12:45:46;;;;;;;1.27;0.40;;;16.00;43.50;;;;;;2621066;47;20100;31
2023/11/01 12:48:21;;;;;;;1.10;0.30;;;16.00;44.60;;;;;;2602830;54;20782;31
2023/11/01 12:50:56;;;;;;;2.35;0.47;;;16.00;43.10;;;;;;2603038;54;20161;31
2023/11/01 12:53:31;;;;;;;1.55;0.68;;;16.00;44.40;;;;;;2602820;54;20034;31
2023/11/01 12:56:09;;;;;;;1.85;0.40;;;16.00;38.60;;;;;;2603027;54;20058;31
2023/11/01 12:58:44;;;;;;;0.93;0.40;;;15.90;40.70;;;;;;2602805;54;20031;31
2023/11/01 13:01:20;;;;;;;1.00;0.50;;;15.90;42.60;;;;;;2621461;47;20026;31
2023/11/01 13:03:54;;;;;;;1.08;0.40;;;15.80;41.10;;;;;;2620957;47;20081;31
2023/11/01 13:06:30;;;;;;;0.70;0.40;;;15.80;44.20;;;;;;2603242;54;20022;31
2023/11/01 13:09:06;;;;;;;1.40;0.45;;;15.70;46.40;;;;;;2621418;47;20033;31
2023/11/01 13:11:44;;;;;;;1.02;0.30;;;15.70;46.10;;;;;;2621332;47;20140;31
2023/11/01 13:14:18;;;;;;;2.42;0.50;;;15.70;46.70;;;;;;2622388;46;20027;31
2023/11/01 13:16:54;;;;;;;1.02;0.40;;;15.70;44.80;;;;;;2621981;46;20050;31
2023/11/01 13:19:29;;;;;;;2.70;0.45;;;15.60;48.80;;;;;;2603812;54;20880;31
2023/11/01 13:22:05;;;;;;;1.33;0.40;;;15.60;48.40;;;;;;2622252;46;20023;31
2023/11/01 13:24:40;;;;;;;;;;;15.60;51.10;;;;;;2603986;54;20325;31
2023/11/01 13:27:17;;;;;;;1.10;0.40;;;15.50;51.30;;;;;;2603905;54;19939;31
2023/11/01 13:29:52;;;;;;;2.15;0.65;;;15.40;53.10;;;;;;2603762;54;20031;31
2023/11/01 13:32:27;;;;;;;1.15;0.40;;;15.40;52.60;;;;;;2622400;46;20110;31
2023/11/01 13:35:02;;;;;;;1.23;0.30;;;15.40;55.60;;;;;;2622255;46;20026;31
2023/11/01 13:37:38;;;;;;;2.85;0.40;;;15.40;55.90;;;;;;2622061;46;20037;31
2023/11/01 13:40:14;;;;;;;;;;;15.30;54.30;;;;;;2622300;46;21618;31
2023/11/01 13:42:51;;;;;;;0.68;0.30;;;15.30;53.40;;;;;;2622052;46;19957;31
2023/11/01 13:45:27;;;;;;;1.40;0.45;;;15.30;51.40;;;;;;2603768;54;20872;31
2023/11/01 13:48:03;;;;;;;0.88;0.40;;;15.30;50.20;;;;;;2621966;46;20479;31
2023/11/01 13:50:41;;;;;;;1.98;0.32;;;15.20;48.00;;;;;;2603621;54;20027;31
2023/11/01 13:53:17;;;;;;;1.33;0.40;;;15.20;50.00;;;;;;2603663;54;19966;31
2023/11/01 13:55:55;;;;;;;1.60;0.40;;;15.20;52.20;;;;;;2622286;46;20901;31
2023/11/01 13:58:35;;;;;;;0.90;0.23;;;15.20;52.60;;;;;;2603555;54;20832;31
2023/11/01 14:01:10;;;;;;;1.55;0.40;;;15.20;53.30;;;;;;2603779;54;20125;31
2023/11/01 14:03:50;;;;;;;1.38;0.50;;;15.20;54.00;;;;;;2603448;54;20569;31